createdAt,value
2018-09-27T00:00:34.629Z,14.9
2018-09-27T00:01:35.351Z,14.9
2018-09-27T00:02:36.108Z,15.0
2018-09-27T00:03:36.855Z,15.0
2018-09-27T00:04:37.635Z,14.9
2018-09-27T00:05:38.839Z,14.9
2018-09-27T00:06:39.859Z,14.9
2018-09-27T00:07:40.836Z,15.0
2018-09-27T00:08:42.431Z,14.9
2018-09-27T00:09:43.228Z,14.9
2018-09-27T00:10:44.041Z,14.9
2018-09-27T00:11:45.241Z,14.9
2018-09-27T00:12:46.409Z,14.9
2018-09-27T00:13:47.173Z,15.0
2018-09-27T00:14:48.048Z,14.9
2018-09-27T00:15:48.945Z,14.9
2018-09-27T00:16:49.944Z,15.0
2018-09-27T00:17:50.703Z,14.9
2018-09-27T00:18:51.509Z,14.8
2018-09-27T00:19:52.653Z,14.8
2018-09-27T00:20:53.537Z,14.8
2018-09-27T00:21:54.741Z,14.9
2018-09-27T00:22:55.535Z,14.8
2018-09-27T00:23:56.366Z,14.8
2018-09-27T00:24:57.449Z,14.8
2018-09-27T00:25:58.238Z,14.9
2018-09-27T00:26:59.854Z,14.8
2018-09-27T00:28:00.595Z,14.8
2018-09-27T00:29:01.677Z,14.8
2018-09-27T00:30:02.529Z,14.9
2018-09-27T00:31:03.768Z,14.9
2018-09-27T00:32:04.529Z,14.9
2018-09-27T00:33:05.691Z,14.9
2018-09-27T00:34:06.443Z,14.9
2018-09-27T00:35:07.359Z,14.8
2018-09-27T00:36:08.110Z,14.8
2018-09-27T00:37:08.967Z,14.8
2018-09-27T00:38:09.817Z,14.8
2018-09-27T00:39:10.639Z,14.8
2018-09-27T00:40:11.706Z,14.8
2018-09-27T00:41:12.688Z,14.8
2018-09-27T00:42:13.406Z,14.8
2018-09-27T00:43:14.379Z,14.8
2018-09-27T00:44:15.118Z,14.8
2018-09-27T00:45:16.143Z,14.8
2018-09-27T00:46:16.895Z,14.8
2018-09-27T00:47:17.638Z,14.8
2018-09-27T00:48:18.366Z,14.9
2018-09-27T00:49:19.083Z,14.8
2018-09-27T00:50:19.858Z,14.8
2018-09-27T00:51:20.590Z,14.8
2018-09-27T00:52:21.324Z,14.9
2018-09-27T00:53:22.061Z,14.8
2018-09-27T00:54:22.794Z,14.9
2018-09-27T00:55:23.515Z,14.8
2018-09-27T00:56:24.236Z,14.9
2018-09-27T00:57:24.971Z,14.8
2018-09-27T00:58:25.694Z,14.8
2018-09-27T00:59:26.690Z,14.9
2018-09-27T01:00:27.705Z,14.9
2018-09-27T01:01:28.418Z,14.8
2018-09-27T01:02:29.140Z,14.8
2018-09-27T01:03:30.121Z,14.8
2018-09-27T01:04:30.852Z,14.9
2018-09-27T01:05:31.702Z,14.8
2018-09-27T01:06:32.425Z,14.8
2018-09-27T01:07:33.161Z,14.9
2018-09-27T01:08:33.887Z,14.9
2018-09-27T01:09:34.610Z,14.8
2018-09-27T01:10:35.614Z,14.9
2018-09-27T01:11:36.381Z,14.9
2018-09-27T01:12:37.111Z,14.9
2018-09-27T01:13:37.850Z,14.9
2018-09-27T01:14:39.178Z,14.9
2018-09-27T01:15:39.955Z,14.9
2018-09-27T01:16:41.207Z,14.9
2018-09-27T01:17:41.934Z,14.9
2018-09-27T01:18:42.694Z,14.9
2018-09-27T01:19:43.672Z,14.9
2018-09-27T01:20:44.385Z,15.0
2018-09-27T01:21:45.393Z,15.0
2018-09-27T01:22:46.256Z,15.0
2018-09-27T01:23:46.990Z,14.9
2018-09-27T01:24:48.045Z,14.9
2018-09-27T01:25:48.772Z,15.0
2018-09-27T01:26:49.924Z,14.9
2018-09-27T01:27:50.652Z,14.9
2018-09-27T01:28:51.365Z,14.9
2018-09-27T01:29:52.445Z,15.0
2018-09-27T01:30:53.181Z,14.9
2018-09-27T01:31:54.276Z,14.9
2018-09-27T01:32:55.008Z,14.9
2018-09-27T01:33:55.736Z,14.9
2018-09-27T01:34:56.456Z,14.9
2018-09-27T01:35:57.191Z,14.9
2018-09-27T01:36:58.226Z,14.9
2018-09-27T01:37:59.212Z,14.8
2018-09-27T01:38:59.954Z,14.8
2018-09-27T01:40:00.675Z,14.9
2018-09-27T01:41:01.414Z,14.9
2018-09-27T01:42:02.141Z,14.9
2018-09-27T01:43:02.852Z,14.8
2018-09-27T01:44:03.662Z,14.8
2018-09-27T01:45:04.388Z,14.9
2018-09-27T01:46:05.129Z,14.8
2018-09-27T01:47:05.930Z,14.8
2018-09-27T01:48:06.577Z,14.8
2018-09-27T01:49:07.312Z,14.8
2018-09-27T01:50:08.146Z,14.8
2018-09-27T01:51:08.870Z,14.8
2018-09-27T01:52:09.669Z,14.8
2018-09-27T01:53:10.382Z,14.9
2018-09-27T01:54:11.101Z,14.8
2018-09-27T01:55:11.842Z,14.8
2018-09-27T01:56:12.550Z,14.9
2018-09-27T01:57:13.513Z,14.9
2018-09-27T01:58:14.516Z,14.9
2018-09-27T01:59:15.275Z,14.8
2018-09-27T02:00:16.254Z,14.8
2018-09-27T02:01:16.964Z,14.8
2018-09-27T02:02:17.684Z,14.8
2018-09-27T02:03:18.397Z,14.8
2018-09-27T02:04:19.179Z,14.9
2018-09-27T02:05:19.903Z,14.8
2018-09-27T02:06:20.620Z,14.8
2018-09-27T02:07:21.382Z,14.8
2018-09-27T02:08:22.109Z,14.9
2018-09-27T02:09:22.881Z,14.8
2018-09-27T02:10:23.889Z,14.8
2018-09-27T02:11:24.864Z,14.8
2018-09-27T02:12:25.589Z,14.8
2018-09-27T02:13:26.312Z,14.8
2018-09-27T02:14:27.079Z,14.8
2018-09-27T02:15:27.799Z,14.8
2018-09-27T02:16:28.533Z,14.7
2018-09-27T02:17:29.263Z,14.8
2018-09-27T02:18:30.283Z,14.8
2018-09-27T02:19:31.055Z,14.8
2018-09-27T02:20:31.778Z,14.9
2018-09-27T02:21:32.753Z,14.8
2018-09-27T02:22:33.479Z,14.8
2018-09-27T02:23:34.239Z,14.8
2018-09-27T02:24:35.269Z,14.9
2018-09-27T02:25:35.981Z,14.8
2018-09-27T02:26:36.713Z,14.9
2018-09-27T02:27:37.726Z,14.8
2018-09-27T02:28:38.500Z,14.9
2018-09-27T02:29:39.267Z,14.9
2018-09-27T02:30:40.237Z,14.9
2018-09-27T02:31:41.222Z,14.8
2018-09-27T02:32:41.941Z,14.9
2018-09-27T02:33:42.830Z,14.8
2018-09-27T02:34:43.612Z,14.9
2018-09-27T02:35:44.492Z,14.9
2018-09-27T02:36:45.427Z,14.9
2018-09-27T02:37:46.151Z,14.8
2018-09-27T02:38:46.947Z,14.9
2018-09-27T02:39:47.795Z,14.9
2018-09-27T02:40:48.534Z,14.9
2018-09-27T02:41:49.401Z,14.9
2018-09-27T02:42:50.463Z,14.8
2018-09-27T02:43:51.195Z,14.9
2018-09-27T02:44:51.922Z,14.9
2018-09-27T02:45:52.653Z,14.8
2018-09-27T02:46:53.467Z,14.9
2018-09-27T02:47:54.235Z,14.8
2018-09-27T02:48:54.954Z,14.9
2018-09-27T02:49:55.945Z,14.9
2018-09-27T02:50:56.667Z,14.9
2018-09-27T02:51:57.387Z,14.9
2018-09-27T02:52:58.103Z,14.9
2018-09-27T02:53:58.887Z,14.9
2018-09-27T02:54:59.875Z,14.9
2018-09-27T02:56:00.604Z,14.9
2018-09-27T02:57:01.331Z,14.8
2018-09-27T02:58:02.054Z,14.8
2018-09-27T02:59:03.077Z,14.8
2018-09-27T03:00:03.788Z,14.8
2018-09-27T03:01:04.520Z,14.8
2018-09-27T03:02:05.501Z,14.8
2018-09-27T03:03:06.213Z,14.8
2018-09-27T03:04:07.000Z,14.8
2018-09-27T03:05:07.722Z,14.9
2018-09-27T03:06:08.464Z,14.9
2018-09-27T03:07:09.237Z,14.9
2018-09-27T03:08:09.954Z,14.8
2018-09-27T03:09:11.024Z,14.9
2018-09-27T03:10:11.702Z,14.9
2018-09-27T03:11:12.442Z,14.9
2018-09-27T03:12:13.163Z,14.9
2018-09-27T03:13:13.899Z,15.0
2018-09-27T03:14:14.640Z,14.9
2018-09-27T03:15:15.350Z,14.9
2018-09-27T03:16:16.343Z,14.9
2018-09-27T03:17:17.074Z,14.9
2018-09-27T03:18:17.793Z,14.9
2018-09-27T03:19:18.580Z,14.9
2018-09-27T03:20:19.564Z,14.9
2018-09-27T03:21:20.544Z,14.9
2018-09-27T03:22:21.534Z,14.8
2018-09-27T03:23:22.260Z,14.9
2018-09-27T03:24:23.005Z,14.9
2018-09-27T03:25:23.997Z,14.9
2018-09-27T03:26:24.748Z,14.9
2018-09-27T03:27:25.469Z,14.9
2018-09-27T03:28:26.216Z,14.9
2018-09-27T03:29:26.979Z,14.9
2018-09-27T03:30:27.789Z,14.9
2018-09-27T03:31:28.495Z,14.9
2018-09-27T03:32:29.237Z,14.9
2018-09-27T03:33:29.958Z,14.9
2018-09-27T03:34:31.000Z,14.9
2018-09-27T03:35:31.778Z,14.9
2018-09-27T03:36:32.513Z,14.9
2018-09-27T03:37:33.242Z,14.9
2018-09-27T03:38:33.976Z,15.0
2018-09-27T03:39:34.733Z,14.9
2018-09-27T03:40:35.562Z,14.9
2018-09-27T03:41:36.146Z,14.8
2018-09-27T03:42:36.872Z,14.9
2018-09-27T03:43:37.592Z,14.9
2018-09-27T03:44:38.566Z,14.9
2018-09-27T03:45:40.452Z,15.0
2018-09-27T03:46:41.189Z,15.0
2018-09-27T03:47:41.957Z,14.9
2018-09-27T03:48:42.774Z,14.9
2018-09-27T03:49:43.957Z,15.0
2018-09-27T03:50:44.668Z,14.9
2018-09-27T03:51:45.408Z,15.0
2018-09-27T03:52:46.123Z,14.9
2018-09-27T03:53:46.848Z,14.9
2018-09-27T03:54:47.828Z,14.9
2018-09-27T03:55:48.559Z,14.9
2018-09-27T03:56:49.279Z,14.9
2018-09-27T03:57:50.014Z,14.9
2018-09-27T03:58:50.731Z,15.0
2018-09-27T03:59:51.451Z,14.9
2018-09-27T04:00:52.459Z,14.8
2018-09-27T04:01:53.173Z,14.8
2018-09-27T04:02:53.897Z,14.8
2018-09-27T04:03:54.628Z,14.9
2018-09-27T04:04:55.600Z,14.8
2018-09-27T04:05:56.317Z,14.8
2018-09-27T04:06:57.064Z,14.9
2018-09-27T04:07:57.800Z,14.8
2018-09-27T04:08:59.124Z,14.9
2018-09-27T04:09:59.839Z,14.8
2018-09-27T04:11:00.557Z,14.9
2018-09-27T04:12:01.625Z,14.8
2018-09-27T04:13:02.352Z,14.9
2018-09-27T04:14:03.087Z,14.8
2018-09-27T04:15:03.822Z,14.8
2018-09-27T04:16:04.828Z,14.9
2018-09-27T04:17:05.546Z,14.8
2018-09-27T04:18:06.279Z,14.9
2018-09-27T04:19:07.004Z,14.8
2018-09-27T04:20:07.742Z,14.9
2018-09-27T04:21:08.725Z,14.9
2018-09-27T04:22:09.447Z,14.9
2018-09-27T04:23:10.429Z,14.8
2018-09-27T04:24:11.476Z,14.9
2018-09-27T04:25:12.191Z,14.9
2018-09-27T04:26:12.913Z,14.9
2018-09-27T04:27:13.881Z,14.9
2018-09-27T04:28:14.599Z,14.8
2018-09-27T04:29:15.338Z,14.8
2018-09-27T04:30:16.111Z,14.8
2018-09-27T04:31:16.844Z,14.8
2018-09-27T04:32:17.577Z,14.8
2018-09-27T04:33:18.284Z,14.8
2018-09-27T04:34:19.018Z,14.9
2018-09-27T04:35:19.742Z,14.8
2018-09-27T04:36:20.467Z,14.9
2018-09-27T04:37:21.196Z,14.8
2018-09-27T04:38:21.915Z,14.8
2018-09-27T04:39:22.643Z,14.8
2018-09-27T04:40:23.624Z,14.9
2018-09-27T04:41:24.641Z,14.9
2018-09-27T04:42:25.385Z,14.8
2018-09-27T04:43:26.100Z,14.8
2018-09-27T04:44:26.836Z,14.8
2018-09-27T04:45:27.825Z,14.8
2018-09-27T04:46:28.542Z,14.8
2018-09-27T04:47:29.260Z,14.9
2018-09-27T04:48:29.975Z,14.8
2018-09-27T04:49:30.693Z,14.8
2018-09-27T04:50:31.665Z,14.9
2018-09-27T04:51:32.653Z,14.9
2018-09-27T04:52:33.450Z,14.9
2018-09-27T04:53:34.167Z,14.8
2018-09-27T04:54:34.940Z,14.9
2018-09-27T04:55:35.624Z,14.9
2018-09-27T04:56:36.341Z,14.8
2018-09-27T04:57:37.061Z,14.8
2018-09-27T04:58:37.791Z,14.8
2018-09-27T04:59:38.515Z,14.8
2018-09-27T05:00:39.516Z,14.8
2018-09-27T05:01:40.244Z,14.8
2018-09-27T05:02:40.986Z,14.8
2018-09-27T05:03:41.990Z,14.8
2018-09-27T05:04:42.683Z,14.8
2018-09-27T05:05:43.416Z,14.8
2018-09-27T05:06:44.431Z,14.8
2018-09-27T05:07:45.147Z,14.9
2018-09-27T05:08:45.865Z,14.9
2018-09-27T05:09:46.607Z,14.9
2018-09-27T05:10:47.330Z,14.9
2018-09-27T05:11:48.053Z,14.9
2018-09-27T05:12:48.791Z,14.9
2018-09-27T05:13:49.563Z,14.8
2018-09-27T05:14:50.302Z,14.9
2018-09-27T05:15:51.026Z,14.9
2018-09-27T05:16:51.764Z,14.9
2018-09-27T05:17:52.486Z,14.9
2018-09-27T05:18:53.271Z,14.9
2018-09-27T05:19:54.019Z,14.9
2018-09-27T05:20:54.983Z,14.9
2018-09-27T05:21:55.696Z,14.9
2018-09-27T05:22:56.667Z,14.9
2018-09-27T05:23:57.410Z,15.0
2018-09-27T05:24:58.138Z,15.0
2018-09-27T05:25:58.862Z,14.9
2018-09-27T05:26:59.625Z,14.9
2018-09-27T05:28:00.347Z,15.0
2018-09-27T05:29:01.426Z,14.9
2018-09-27T05:30:02.212Z,15.0
2018-09-27T05:31:03.004Z,15.0
2018-09-27T05:32:03.918Z,14.9
2018-09-27T05:33:04.654Z,15.0
2018-09-27T05:34:05.424Z,14.9
2018-09-27T05:35:06.293Z,15.0
2018-09-27T05:36:07.064Z,15.0
2018-09-27T05:37:07.943Z,14.9
2018-09-27T05:38:08.884Z,14.9
2018-09-27T05:39:09.665Z,15.0
2018-09-27T05:40:10.445Z,15.0
2018-09-27T05:41:11.380Z,14.9
2018-09-27T05:42:12.153Z,15.0
2018-09-27T05:43:12.967Z,15.1
2018-09-27T05:44:13.873Z,15.1
2018-09-27T05:45:14.610Z,15.1
2018-09-27T05:46:15.731Z,15.0
2018-09-27T05:47:16.796Z,15.1
2018-09-27T05:48:17.581Z,15.1
2018-09-27T05:49:18.404Z,15.1
2018-09-27T05:50:19.292Z,15.1
2018-09-27T05:51:20.121Z,15.1
2018-09-27T05:52:21.011Z,15.1
2018-09-27T05:53:22.016Z,15.2
2018-09-27T05:54:22.812Z,15.1
2018-09-27T05:55:23.646Z,15.1
2018-09-27T05:56:24.433Z,15.1
2018-09-27T05:58:26.504Z,15.1
2018-09-27T05:59:27.318Z,15.2
2018-09-27T06:00:28.068Z,15.2
2018-09-27T06:01:28.956Z,15.1
2018-09-27T06:02:29.870Z,15.1
2018-09-27T06:03:30.767Z,15.1
2018-09-27T06:04:31.471Z,15.2
2018-09-27T06:05:32.585Z,15.1
2018-09-27T06:06:33.663Z,15.1
2018-09-27T06:07:34.482Z,15.2
2018-09-27T06:08:35.638Z,15.2
2018-09-27T06:09:36.687Z,15.2
2018-09-27T06:10:37.361Z,15.3
2018-09-27T06:11:38.085Z,15.3
2018-09-27T06:12:39.334Z,15.3
2018-09-27T06:13:40.111Z,15.3
2018-09-27T06:14:40.832Z,15.3
2018-09-27T06:15:41.632Z,15.3
2018-09-27T06:16:42.345Z,15.3
2018-09-27T06:17:43.093Z,15.3
2018-09-27T06:18:43.826Z,15.3
2018-09-27T06:19:44.616Z,15.2
2018-09-27T06:20:45.289Z,15.4
2018-09-27T06:21:46.013Z,15.4
2018-09-27T06:22:46.751Z,15.4
2018-09-27T06:23:47.481Z,15.4
2018-09-27T06:24:48.231Z,15.4
2018-09-27T06:25:49.005Z,15.4
2018-09-27T06:26:49.736Z,15.4
2018-09-27T06:27:50.705Z,15.5
2018-09-27T06:28:51.439Z,15.5
2018-09-27T06:29:52.183Z,15.5
2018-09-27T06:30:52.905Z,15.5
2018-09-27T06:31:53.937Z,15.5
2018-09-27T06:32:54.666Z,15.6
2018-09-27T06:33:55.391Z,15.5
2018-09-27T06:34:56.399Z,15.5
2018-09-27T06:35:57.115Z,15.6
2018-09-27T06:36:57.848Z,15.5
2018-09-27T06:37:58.586Z,15.6
2018-09-27T06:38:59.304Z,15.6
2018-09-27T06:40:00.026Z,15.7
2018-09-27T06:41:00.776Z,15.7
2018-09-27T06:42:01.494Z,15.6
2018-09-27T06:43:02.522Z,15.7
2018-09-27T06:44:03.248Z,15.6
2018-09-27T06:45:03.976Z,15.7
2018-09-27T06:46:04.708Z,15.8
2018-09-27T06:47:05.449Z,15.7
2018-09-27T06:48:06.180Z,15.8
2018-09-27T06:49:06.916Z,15.8
2018-09-27T06:50:07.637Z,15.8
2018-09-27T06:51:08.360Z,15.9
2018-09-27T06:52:09.096Z,15.9
2018-09-27T06:53:09.842Z,15.9
2018-09-27T06:54:10.587Z,16.0
2018-09-27T06:55:11.327Z,16.0
2018-09-27T06:56:12.105Z,16.0
2018-09-27T06:57:12.789Z,16.0
2018-09-27T06:58:13.555Z,16.0
2018-09-27T06:59:14.298Z,16.0
2018-09-27T07:00:15.010Z,16.0
2018-09-27T07:01:16.375Z,16.0
2018-09-27T07:02:17.792Z,16.1
2018-09-27T07:03:18.697Z,16.1
2018-09-27T07:04:19.435Z,16.1
2018-09-27T07:06:35.969Z,16.2
2018-09-27T07:07:36.699Z,16.2
2018-09-27T07:08:37.494Z,16.2
2018-09-27T07:09:38.163Z,16.3
2018-09-27T07:10:38.885Z,16.2
2018-09-27T07:11:39.606Z,16.2
2018-09-27T07:12:40.374Z,16.2
2018-09-27T07:13:41.129Z,16.2
2018-09-27T07:14:41.905Z,16.3
2018-09-27T07:15:42.649Z,16.3
2018-09-27T07:16:43.317Z,16.3
2018-09-27T07:17:44.090Z,16.3
2018-09-27T07:18:44.933Z,16.3
2018-09-27T07:19:45.630Z,16.3
2018-09-27T07:20:46.429Z,16.3
2018-09-27T07:21:47.174Z,16.4
2018-09-27T07:22:47.890Z,16.5
2018-09-27T07:23:48.917Z,16.4
2018-09-27T07:24:49.701Z,16.4
2018-09-27T07:25:50.478Z,16.6
2018-09-27T07:26:51.503Z,16.5
2018-09-27T07:27:52.190Z,16.5
2018-09-27T07:28:52.920Z,16.6
2018-09-27T07:29:54.163Z,16.7
2018-09-27T07:30:54.884Z,16.6
2018-09-27T07:31:55.616Z,16.6
2018-09-27T07:32:56.333Z,16.7
2018-09-27T07:33:57.096Z,16.7
2018-09-27T07:34:58.347Z,16.7
2018-09-27T07:35:59.070Z,16.7
2018-09-27T07:37:00.190Z,16.7
2018-09-27T07:38:00.920Z,16.8
2018-09-27T07:39:01.745Z,16.8
2018-09-27T07:40:02.463Z,16.7
2018-09-27T07:41:03.515Z,16.8
2018-09-27T07:42:04.250Z,16.8
2018-09-27T07:43:05.244Z,16.6
2018-09-27T07:44:05.973Z,16.8
2018-09-27T07:45:06.701Z,16.7
2018-09-27T07:46:07.444Z,16.9
2018-09-27T07:47:08.239Z,16.9
2018-09-27T07:48:08.980Z,17.0
2018-09-27T07:49:09.706Z,16.9
2018-09-27T07:50:10.428Z,17.0
2018-09-27T07:51:11.400Z,16.9
2018-09-27T07:52:12.440Z,16.7
2018-09-27T07:53:13.206Z,16.8
2018-09-27T07:54:14.181Z,16.9
2018-09-27T07:55:15.034Z,17.1
2018-09-27T07:56:15.765Z,17.2
2018-09-27T07:57:16.988Z,17.2
2018-09-27T07:58:17.723Z,17.2
2018-09-27T07:59:18.477Z,17.2
2018-09-27T08:00:19.730Z,17.5
2018-09-27T08:01:20.469Z,18.0
2018-09-27T08:02:21.203Z,18.3
2018-09-27T08:03:22.202Z,18.5
2018-09-27T08:04:22.994Z,18.9
2018-09-27T08:05:23.674Z,18.7
2018-09-27T08:06:24.398Z,18.9
2018-09-27T08:07:25.123Z,18.7
2018-09-27T08:08:25.886Z,18.8
2018-09-27T08:09:26.592Z,18.8
2018-09-27T08:10:27.442Z,18.5
2018-09-27T08:11:28.244Z,18.4
2018-09-27T08:12:28.914Z,18.5
2018-09-27T08:13:29.628Z,18.7
2018-09-27T08:14:30.400Z,19.1
2018-09-27T08:15:31.113Z,19.2
2018-09-27T08:16:31.854Z,19.6
2018-09-27T08:17:32.585Z,19.8
2018-09-27T08:18:33.314Z,20.2
2018-09-27T08:19:34.041Z,20.4
2018-09-27T08:20:34.901Z,20.8
2018-09-27T08:21:35.506Z,20.8
2018-09-27T08:22:36.484Z,20.7
2018-09-27T08:23:37.219Z,20.7
2018-09-27T08:24:38.205Z,20.4
2018-09-27T08:25:38.934Z,20.7
2018-09-27T08:26:39.752Z,20.9
2018-09-27T08:27:40.411Z,21.1
2018-09-27T08:28:41.158Z,21.2
2018-09-27T08:30:24.647Z,21.0
2018-09-27T08:31:25.366Z,21.2
2018-09-27T08:32:26.119Z,21.3
2018-09-27T08:33:27.080Z,21.2
2018-09-27T08:34:27.803Z,21.2
2018-09-27T08:35:28.805Z,21.2
2018-09-27T08:36:29.528Z,21.5
2018-09-27T08:37:30.287Z,21.6
2018-09-27T08:38:31.035Z,21.0
2018-09-27T08:39:31.802Z,21.2
2018-09-27T08:40:32.546Z,21.1
2018-09-27T08:41:33.552Z,21.1
2018-09-27T08:42:34.284Z,21.5
2018-09-27T08:43:35.000Z,21.4
2018-09-27T08:44:35.839Z,21.4
2018-09-27T08:45:36.585Z,21.5
2018-09-27T08:46:37.491Z,21.4
2018-09-27T08:47:38.235Z,21.5
2018-09-27T08:48:39.007Z,21.4
2018-09-27T08:49:39.761Z,21.3
2018-09-27T08:50:40.520Z,21.6
2018-09-27T08:51:42.056Z,21.7
2018-09-27T08:52:42.746Z,21.6
2018-09-27T08:53:43.487Z,21.8
2018-09-27T08:54:44.220Z,22.0
2018-09-27T08:55:45.072Z,22.3
2018-09-27T08:56:45.709Z,22.4
2018-09-27T08:57:46.444Z,22.5
2018-09-27T08:58:47.521Z,22.7
2018-09-27T08:59:48.569Z,22.6
2018-09-27T09:00:49.299Z,22.2
2018-09-27T09:01:50.053Z,22.2
2018-09-27T09:02:50.801Z,22.3
2018-09-27T09:03:51.587Z,22.0
2018-09-27T09:04:52.287Z,22.0
2018-09-27T09:05:53.010Z,22.0
2018-09-27T09:06:53.766Z,22.0
2018-09-27T09:07:54.550Z,21.9
2018-09-27T09:08:55.964Z,21.8
2018-09-27T09:09:57.004Z,21.4
2018-09-27T09:10:57.760Z,21.2
2018-09-27T09:11:58.569Z,21.3
2018-09-27T09:12:59.279Z,21.2
2018-09-27T09:14:00.022Z,20.8
2018-09-27T09:15:01.042Z,20.4
2018-09-27T09:16:01.780Z,20.7
2018-09-27T09:17:02.532Z,20.9
2018-09-27T09:18:03.284Z,21.2
2018-09-27T09:19:04.073Z,21.5
2018-09-27T09:21:20.312Z,22.0
2018-09-27T09:22:21.055Z,22.3
2018-09-27T09:23:21.829Z,22.6
2018-09-27T09:24:22.806Z,22.7
2018-09-27T09:25:23.530Z,23.1
2018-09-27T09:26:24.271Z,23.2
2018-09-27T09:27:25.038Z,23.3
2018-09-27T09:28:25.842Z,23.2
2018-09-27T09:29:26.637Z,23.3
2018-09-27T09:30:27.642Z,23.3
2018-09-27T09:31:28.412Z,23.4
2018-09-27T09:32:29.152Z,23.2
2018-09-27T09:33:29.959Z,23.0
2018-09-27T09:34:30.890Z,23.1
2018-09-27T09:35:31.939Z,22.8
2018-09-27T09:36:32.651Z,22.6
2018-09-27T09:37:33.749Z,22.4
2018-09-27T09:38:34.753Z,22.0
2018-09-27T09:39:35.485Z,21.9
2018-09-27T09:40:36.806Z,21.9
2018-09-27T09:41:37.618Z,21.7
2018-09-27T09:42:38.359Z,22.0
2018-09-27T09:43:39.107Z,21.6
2018-09-27T09:44:39.840Z,21.9
2018-09-27T09:45:40.835Z,22.4
2018-09-27T09:46:41.946Z,22.8
2018-09-27T09:47:42.898Z,23.3
2018-09-27T09:48:43.746Z,22.8
2018-09-27T09:49:44.494Z,23.2
2018-09-27T09:50:45.300Z,23.2
2018-09-27T09:51:46.122Z,23.2
2018-09-27T09:52:46.873Z,23.4
2018-09-27T09:53:47.645Z,23.6
2018-09-27T09:54:48.380Z,23.8
2018-09-27T09:55:49.122Z,24.2
2018-09-27T09:56:49.850Z,24.4
2018-09-27T09:57:50.876Z,24.7
2018-09-27T09:58:51.860Z,24.4
2018-09-27T09:59:52.706Z,23.8
2018-09-27T10:00:54.242Z,23.2
2018-09-27T10:01:54.967Z,23.4
2018-09-27T10:02:56.009Z,23.9
2018-09-27T10:03:56.984Z,24.4
2018-09-27T10:04:57.722Z,24.7
2018-09-27T10:05:58.469Z,24.8
2018-09-27T10:06:59.286Z,24.4
2018-09-27T10:08:00.023Z,24.4
2018-09-27T10:09:00.831Z,24.5
2018-09-27T10:10:01.487Z,25.0
2018-09-27T10:11:02.218Z,25.4
2018-09-27T10:12:02.962Z,25.4
2018-09-27T10:13:03.733Z,25.4
2018-09-27T10:14:04.476Z,25.1
2018-09-27T10:15:05.467Z,25.3
2018-09-27T10:16:06.228Z,25.7
2018-09-27T10:17:06.947Z,25.7
2018-09-27T10:18:07.686Z,26.0
2018-09-27T10:19:08.427Z,26.2
2018-09-27T10:20:09.684Z,26.4
2018-09-27T10:21:10.406Z,26.5
2018-09-27T10:22:11.211Z,26.4
2018-09-27T10:23:12.154Z,26.3
2018-09-27T10:24:12.886Z,26.5
2018-09-27T10:25:13.630Z,26.7
2018-09-27T10:26:14.367Z,26.3
2018-09-27T10:27:15.095Z,26.4
2018-09-27T10:28:15.846Z,25.8
2018-09-27T10:29:16.645Z,25.8
2018-09-27T10:30:17.388Z,25.5
2018-09-27T10:31:18.155Z,25.2
2018-09-27T10:32:18.881Z,25.4
2018-09-27T10:33:19.621Z,25.9
2018-09-27T10:34:20.720Z,25.9
2018-09-27T10:35:21.393Z,26.3
2018-09-27T10:36:22.132Z,26.6
2018-09-27T10:37:23.156Z,26.5
2018-09-27T10:38:23.935Z,26.9
2018-09-27T10:39:24.761Z,27.3
2018-09-27T10:40:25.501Z,27.4
2018-09-27T10:41:26.232Z,27.5
2018-09-27T10:42:26.967Z,27.8
2018-09-27T10:43:27.941Z,28.2
2018-09-27T10:44:28.686Z,28.4
2018-09-27T10:45:29.417Z,28.5
2018-09-27T10:46:30.155Z,28.6
2018-09-27T10:47:30.903Z,28.6
2018-09-27T10:48:31.635Z,28.1
2018-09-27T10:49:32.368Z,27.3
2018-09-27T10:50:33.118Z,27.0
2018-09-27T10:51:33.906Z,27.3
2018-09-27T10:52:34.646Z,27.5
2018-09-27T10:53:35.667Z,27.2
2018-09-27T10:54:36.400Z,27.1
2018-09-27T10:55:37.149Z,27.3
2018-09-27T10:56:37.892Z,27.2
2018-09-27T10:57:38.628Z,27.0
2018-09-27T10:58:39.361Z,27.3
2018-09-27T10:59:40.136Z,27.5
2018-09-27T11:00:40.871Z,27.9
2018-09-27T11:01:41.624Z,27.1
2018-09-27T11:02:42.352Z,27.2
2018-09-27T11:03:43.070Z,27.5
2018-09-27T11:04:43.856Z,27.8
2018-09-27T11:05:44.669Z,27.5
2018-09-27T11:06:45.368Z,27.6
2018-09-27T11:07:46.344Z,27.1
2018-09-27T11:08:47.082Z,27.3
2018-09-27T11:09:47.887Z,27.4
2018-09-27T11:10:48.699Z,27.6
2018-09-27T11:11:49.389Z,27.1
2018-09-27T11:12:50.180Z,26.9
2018-09-27T11:13:50.914Z,27.2
2018-09-27T11:14:51.658Z,27.4
2018-09-27T11:15:52.405Z,27.1
2018-09-27T11:16:53.161Z,27.1
2018-09-27T11:17:53.909Z,27.1
2018-09-27T11:18:54.667Z,27.3
2018-09-27T11:19:55.680Z,27.4
2018-09-27T11:20:56.406Z,26.9
2018-09-27T11:21:57.168Z,27.2
2018-09-27T11:22:57.903Z,26.9
2018-09-27T11:23:58.635Z,26.9
2018-09-27T11:24:59.374Z,26.9
2018-09-27T11:26:00.387Z,27.2
2018-09-27T11:27:01.148Z,27.4
2018-09-27T11:28:01.931Z,26.9
2018-09-27T11:29:02.793Z,27.0
2018-09-27T11:30:03.415Z,27.2
2018-09-27T11:31:04.164Z,27.2
2018-09-27T11:32:04.926Z,27.0
2018-09-27T11:33:05.941Z,27.1
2018-09-27T11:34:06.628Z,27.5
2018-09-27T11:35:07.612Z,27.7
2018-09-27T11:36:08.359Z,27.0
2018-09-27T11:37:09.077Z,26.6
2018-09-27T11:38:09.813Z,26.8
2018-09-27T11:39:10.553Z,26.9
2018-09-27T11:40:11.307Z,26.8
2018-09-27T11:41:12.062Z,27.0
2018-09-27T11:42:13.946Z,27.2
2018-09-27T11:43:15.072Z,27.1
2018-09-27T11:44:15.943Z,27.0
2018-09-27T11:45:17.050Z,26.9
2018-09-27T11:46:17.776Z,27.0
2018-09-27T11:47:18.518Z,26.9
2018-09-27T11:48:19.556Z,27.0
2018-09-27T11:49:20.344Z,27.2
2018-09-27T11:50:21.227Z,27.0
2018-09-27T11:51:21.833Z,27.2
2018-09-27T11:52:22.580Z,26.9
2018-09-27T11:53:23.563Z,27.0
2018-09-27T11:54:24.293Z,26.9
2018-09-27T11:55:25.035Z,26.8
2018-09-27T11:56:26.296Z,26.6
2018-09-27T11:57:27.254Z,26.7
2018-09-27T11:58:27.998Z,26.6
2018-09-27T11:59:28.780Z,26.8
2018-09-27T12:00:29.803Z,26.8
2018-09-27T12:01:30.554Z,26.4
2018-09-27T12:02:31.285Z,26.4
2018-09-27T12:03:32.333Z,26.1
2018-09-27T12:04:33.059Z,26.2
2018-09-27T12:05:33.812Z,26.2
2018-09-27T12:06:34.666Z,26.1
2018-09-27T12:07:35.438Z,26.3
2018-09-27T12:08:36.072Z,26.3
2018-09-27T12:09:36.823Z,26.4
2018-09-27T12:10:37.548Z,26.7
2018-09-27T12:11:38.893Z,26.9
2018-09-27T12:12:39.981Z,27.3
2018-09-27T12:13:40.728Z,27.3
2018-09-27T12:14:41.789Z,27.5
2018-09-27T12:15:42.762Z,27.5
2018-09-27T12:16:43.916Z,27.5
2018-09-27T12:17:44.745Z,27.9
2018-09-27T12:18:45.403Z,28.2
2018-09-27T12:19:46.233Z,28.1
2018-09-27T12:20:46.905Z,28.5
2018-09-27T12:21:47.970Z,28.9
2018-09-27T12:22:48.708Z,28.7
2018-09-27T12:23:49.767Z,28.7
2018-09-27T12:24:50.815Z,28.9
2018-09-27T12:25:51.546Z,29.2
2018-09-27T12:26:52.550Z,29.4
2018-09-27T12:27:53.585Z,29.5
2018-09-27T12:28:54.338Z,29.9
2018-09-27T12:29:55.332Z,30.1
2018-09-27T12:30:56.343Z,30.3
2018-09-27T12:31:57.076Z,30.3
2018-09-27T12:32:59.004Z,29.5
2018-09-27T12:34:00.163Z,29.6
2018-09-27T12:35:00.917Z,29.8
2018-09-27T12:36:01.666Z,30.1
2018-09-27T12:37:02.420Z,30.2
2018-09-27T12:38:03.505Z,30.2
2018-09-27T12:39:04.668Z,30.3
2018-09-27T12:40:05.434Z,30.2
2018-09-27T12:41:06.169Z,30.2
2018-09-27T12:42:07.028Z,29.7
2018-09-27T12:43:07.653Z,28.9
2018-09-27T12:44:08.420Z,28.4
2018-09-27T12:45:09.180Z,28.3
2018-09-27T12:46:10.287Z,28.3
2018-09-27T12:47:10.924Z,28.1
2018-09-27T12:48:11.715Z,28.2
2018-09-27T12:49:12.659Z,27.5
2018-09-27T12:50:13.411Z,27.0
2018-09-27T12:51:14.267Z,26.7
2018-09-27T12:52:15.327Z,26.8
2018-09-27T12:53:16.160Z,26.3
2018-09-27T12:54:16.848Z,26.1
2018-09-27T12:55:17.587Z,25.7
2018-09-27T12:56:18.329Z,25.5
2018-09-27T12:57:19.325Z,25.4
2018-09-27T12:58:20.105Z,25.5
2018-09-27T12:59:20.844Z,25.5
2018-09-27T13:00:21.591Z,25.4
2018-09-27T13:01:22.599Z,25.2
2018-09-27T13:02:23.392Z,25.1
2018-09-27T13:03:24.103Z,24.8
2018-09-27T13:04:25.093Z,24.6
2018-09-27T13:05:26.080Z,24.4
2018-09-27T13:06:26.824Z,24.3
2018-09-27T13:07:27.597Z,24.5
2018-09-27T13:08:28.346Z,24.2
2018-09-27T13:09:29.160Z,24.4
2018-09-27T13:10:29.839Z,24.4
2018-09-27T13:11:30.571Z,24.4
2018-09-27T13:12:31.718Z,24.4
2018-09-27T13:13:32.905Z,24.4
2018-09-27T13:14:33.515Z,24.5
2018-09-27T13:15:34.241Z,24.4
2018-09-27T13:16:34.989Z,24.3
2018-09-27T13:17:35.732Z,24.3
2018-09-27T13:18:36.507Z,24.3
2018-09-27T13:19:37.599Z,24.0
2018-09-27T13:20:38.325Z,24.1
2018-09-27T13:21:39.065Z,23.9
2018-09-27T13:22:39.754Z,23.9
2018-09-27T13:23:40.765Z,23.9
2018-09-27T13:24:41.755Z,23.8
2018-09-27T13:25:42.569Z,23.8
2018-09-27T13:26:43.512Z,23.8
2018-09-27T13:27:44.253Z,23.8
2018-09-27T13:28:45.110Z,23.8
2018-09-27T13:29:45.729Z,23.8
2018-09-27T13:30:46.454Z,23.8
2018-09-27T13:31:47.191Z,23.8
2018-09-27T13:32:47.959Z,23.7
2018-09-27T13:33:48.723Z,23.8